Time;durP1;ratioP1;P1;durP2;ratioP2;P2;SDS_P1;SDS_P2;PMS_P1;PMS_P2;Temp;Humidity;BMP_temperature;BMP_pressure;BME280_temperature;BME280_humidity;BME280_pressure;Samples;Min_cycle;Max_cycle;Signal;HPM_P1;HPM_P2
2021/05/29 00:01:15;;;;;;;8.13;4.22;;;;;;;23.42;50.29;101270.75;144992;618;6002;-76
2021/05/29 00:03:41;;;;;;;7.68;4.40;;;;;;;23.39;55.10;101278.75;144992;652;6002;-76
2021/05/29 00:06:08;;;;;;;8.98;4.55;;;;;;;23.45;50.54;101270.69;144992;627;6002;-77
2021/05/29 00:08:35;;;;;;;9.07;4.40;;;;;;;23.28;56.54;101280.66;144992;622;6002;-77
2021/05/29 00:11:03;;;;;;;8.43;4.70;;;;;;;23.30;51.07;101273.56;144992;569;6002;-76
2021/05/29 00:13:31;;;;;;;6.28;4.53;;;;;;;23.25;51.81;101278.06;144992;626;6017;-76
2021/05/29 00:15:58;;;;;;;7.45;4.57;;;;;;;23.23;51.78;101280.72;144992;598;6002;-76
2021/05/29 00:18:25;;;;;;;8.20;4.20;;;;;;;23.24;51.89;101278.94;144992;618;6002;-77
2021/05/29 00:20:52;;;;;;;6.12;4.12;;;;;;;23.25;51.70;101270.13;144992;564;6002;-76
2021/05/29 00:23:21;;;;;;;7.35;4.22;;;;;;;23.27;51.72;101273.59;144992;565;6002;-75
2021/05/29 00:25:47;;;;;;;3.08;2.62;;;;;;;23.07;47.62;101264.16;144992;571;6002;-77
2021/05/29 00:28:14;;;;;;;5.00;3.40;;;;;;;22.95;51.21;101261.66;144992;572;6002;-78
2021/05/29 00:30:43;;;;;;;4.18;2.80;;;;;;;23.01;50.76;101265.09;144992;594;6002;-78
2021/05/29 00:33:10;;;;;;;3.55;2.47;;;;;;;23.05;50.12;101270.34;144992;596;6002;-76
2021/05/29 00:35:37;;;;;;;5.28;2.90;;;;;;;23.09;50.24;101264.16;144992;563;6002;-77
2021/05/29 00:38:04;;;;;;;4.68;3.80;;;;;;;23.04;50.29;101258.88;144992;592;6002;-78
2021/05/29 00:40:32;;;;;;;11.80;3.62;;;;;;;23.10;50.67;101253.53;144992;572;6002;-75
2021/05/29 00:42:58;;;;;;;3.75;2.55;;;;;;;23.09;50.53;101265.03;144992;594;6002;-75
2021/05/29 00:45:27;;;;;;;4.75;2.83;;;;;;;23.11;51.65;101263.22;144992;570;6002;-77
2021/05/29 00:47:53;;;;;;;5.00;3.20;;;;;;;23.21;50.16;101260.44;144992;634;6002;-76
2021/05/29 00:50:20;;;;;;;4.18;3.00;;;;;;;23.24;51.53;101260.41;144992;674;6002;-76
2021/05/29 00:52:47;;;;;;;8.50;3.10;;;;;;;23.21;50.27;101265.75;144992;595;6002;-76
2021/05/29 00:55:15;;;;;;;5.20;3.15;;;;;;;23.12;50.61;101254.37;144992;595;6002;-78
2021/05/29 00:57:47;;;;;;;7.15;3.80;;;;;;;23.08;50.56;101255.34;144992;581;6002;-75
2021/05/29 01:00:17;;;;;;;4.93;3.53;;;;;;;23.14;50.95;101254.37;144991;578;6002;-75
2021/05/29 01:02:44;;;;;;;5.03;3.00;;;;;;;23.13;50.30;101256.16;144992;595;6002;-76
2021/05/29 01:05:13;;;;;;;6.37;3.10;;;;;;;23.13;49.94;101258.81;144992;583;6002;-76
2021/05/29 01:07:40;;;;;;;3.28;2.97;;;;;;;23.13;50.58;101256.16;144992;582;6002;-75
2021/05/29 01:10:08;;;;;;;3.72;2.70;;;;;;;22.79;48.34;101253.03;144992;604;6002;-77
2021/05/29 01:12:35;;;;;;;5.95;2.83;;;;;;;22.89;50.25;101248.50;144992;569;6002;-76
2021/05/29 01:15:06;;;;;;;6.43;3.30;;;;;;;22.89;50.12;101243.19;144992;589;6002;-77
2021/05/29 01:17:32;;;;;;;5.78;3.10;;;;;;;22.86;50.30;101244.13;144992;571;6002;-75
2021/05/29 01:19:59;;;;;;;9.10;3.62;;;;;;;22.89;50.42;101241.44;144992;586;6002;-76
2021/05/29 01:22:40;;;;;;;5.47;3.45;;;;;;;22.92;50.53;101256.41;144992;658;6002;-76
2021/05/29 01:25:36;;;;;;;3.87;3.47;;;;;;;22.86;50.35;101259.12;144992;564;6002;-74
2021/05/29 01:28:27;;;;;;;8.88;3.35;;;;;;;22.86;50.59;101243.22;144992;581;6004;-75
2021/05/29 01:31:02;;;;;;;3.75;2.80;;;;;;;22.75;51.27;101241.62;144992;569;6002;-76
2021/05/29 01:33:31;;;;;;;5.57;3.35;;;;;;;22.72;52.01;101251.38;144992;577;6002;-76
2021/05/29 01:36:01;;;;;;;6.35;3.22;;;;;;;22.78;51.05;101249.50;144992;627;6002;-76
2021/05/29 01:38:28;;;;;;;4.70;3.10;;;;;;;22.85;50.97;101244.16;144992;657;6002;-76
2021/05/29 01:41:05;;;;;;;3.85;3.45;;;;;;;22.91;50.80;101234.34;144992;627;6002;-74
2021/05/29 01:43:35;;;;;;;4.15;3.15;;;;;;;22.94;50.65;101246.66;144991;577;6002;-76
2021/05/29 01:46:05;;;;;;;7.25;2.92;;;;;;;22.93;51.25;101255.50;144992;633;6002;-76
2021/05/29 01:48:39;;;;;;;4.50;3.20;;;;;;;22.95;50.93;101259.00;144992;622;6002;-77
2021/05/29 01:51:06;;;;;;;4.40;3.03;;;;;;;23.02;50.61;101258.03;144992;597;6002;-75
2021/05/29 01:53:32;;;;;;;7.18;3.28;;;;;;;23.06;50.51;101258.88;144992;582;6002;-76
2021/05/29 01:56:00;;;;;;;9.00;3.40;;;;;;;23.06;50.79;101253.56;144992;581;6002;-76
2021/05/29 01:58:26;;;;;;;6.15;3.40;;;;;;;23.01;51.17;101246.56;144992;604;6002;-77
2021/05/29 02:00:53;;;;;;;7.15;2.80;;;;;;;22.89;51.45;101251.13;144992;580;6002;-75
2021/05/29 02:03:20;;;;;;;3.75;2.70;;;;;;;22.76;48.98;101238.06;144992;583;6002;-74
2021/05/29 02:05:49;;;;;;;3.40;2.20;;;;;;;22.75;46.16;101246.03;144992;590;6002;-74
2021/05/29 02:08:16;;;;;;;2.20;1.83;;;;;;;22.84;50.48;101256.50;144992;590;6002;-76
2021/05/29 02:10:45;;;;;;;4.32;2.20;;;;;;;22.74;43.21;101242.50;144992;566;6002;-75
2021/05/29 02:13:26;;;;;;;3.67;2.20;;;;;;;22.69;47.83;101244.34;144992;578;6002;-75
2021/05/29 02:15:53;;;;;;;3.53;2.70;;;;;;;22.70;48.78;101251.38;144992;586;6002;-76
2021/05/29 02:18:20;;;;;;;5.32;3.40;;;;;;;22.74;49.05;101252.22;144992;571;6002;-76
2021/05/29 02:20:50;;;;;;;8.18;3.40;;;;;;;22.79;49.20;101256.53;144992;612;6002;-74
2021/05/29 02:23:22;;;;;;;5.45;3.90;;;;;;;22.83;50.76;101258.28;144992;637;6002;-76
2021/05/29 02:25:50;;;;;;;8.50;5.07;;;;;;;22.80;49.56;101247.72;144992;589;6002;-78
2021/05/29 02:28:18;;;;;;;8.93;5.50;;;;;;;22.85;49.60;101249.44;144992;585;6002;-75
2021/05/29 02:30:45;;;;;;;9.93;5.22;;;;;;;22.89;49.68;101251.13;144992;643;6002;-75
2021/05/29 02:33:12;;;;;;;7.25;4.85;;;;;;;22.94;49.43;101246.66;144992;615;6002;-75
2021/05/29 02:35:38;;;;;;;7.47;5.78;;;;;;;22.93;49.48;101252.88;144992;571;6002;-75
2021/05/29 02:38:06;;;;;;;8.98;5.40;;;;;;;22.86;49.75;101256.47;144992;586;6002;-75
2021/05/29 02:40:33;;;;;;;10.35;5.10;;;;;;;22.82;50.17;101258.28;144992;581;6002;-75
2021/05/29 02:43:00;;;;;;;8.60;5.60;;;;;;;22.83;50.00;101263.56;144992;581;6002;-77
2021/05/29 02:45:27;;;;;;;7.12;5.00;;;;;;;22.86;49.91;101259.12;144992;587;6002;-76
2021/05/29 02:47:54;;;;;;;8.18;4.18;;;;;;;22.72;50.46;101262.81;144992;588;6002;-76
2021/05/29 02:50:21;;;;;;;8.43;4.55;;;;;;;22.73;50.25;101266.34;144992;596;6002;-75
2021/05/29 02:52:47;;;;;;;7.68;4.60;;;;;;;22.74;50.31;101270.75;144992;670;6002;-75
2021/05/29 02:55:21;;;;;;;9.15;4.45;;;;;;;22.73;50.30;101268.97;144992;608;6002;-75
2021/05/29 02:57:52;;;;;;;6.47;4.87;;;;;;;22.77;49.99;101276.88;144992;591;6002;-76
2021/05/29 03:00:20;;;;;;;8.10;5.50;;;;;;;22.59;49.74;101279.75;144992;579;6002;-75
2021/05/29 03:02:47;;;;;;;10.25;5.93;;;;;;;22.58;50.48;101288.56;144992;666;6002;-74
2021/05/29 03:05:14;;;;;;;9.00;5.87;;;;;;;22.62;50.39;101287.63;144992;630;6002;-75
2021/05/29 03:07:40;;;;;;;7.07;4.45;;;;;;;22.62;50.16;101284.97;144992;563;6002;-75
2021/05/29 03:10:08;;;;;;;6.45;3.78;;;;;;;22.69;49.93;101289.31;144992;573;6002;-75
2021/05/29 03:12:36;;;;;;;7.35;4.37;;;;;;;22.74;49.79;101282.19;144992;614;6002;-75
2021/05/29 03:15:07;;;;;;;12.37;4.00;;;;;;;22.78;49.51;101278.63;144992;595;6002;-75
2021/05/29 03:17:33;;;;;;;6.25;3.85;;;;;;;22.77;49.47;101286.59;144992;573;6002;-75
2021/05/29 03:20:00;;;;;;;9.20;4.30;;;;;;;22.79;49.15;101292.72;144992;569;6002;-75
2021/05/29 03:22:26;;;;;;;7.95;4.30;;;;;;;22.80;49.35;101300.66;144992;632;6002;-77
2021/05/29 03:24:53;;;;;;;7.80;4.25;;;;;;;22.73;49.44;101293.69;144992;578;6002;-76
2021/05/29 03:27:19;;;;;;;4.25;2.87;;;;;;;22.73;49.50;101295.44;144991;564;6002;-75
2021/05/29 03:29:46;;;;;;;6.20;3.22;;;;;;;22.76;49.10;101298.06;144992;614;6002;-76
2021/05/29 03:32:14;;;;;;;6.18;3.22;;;;;;;22.78;49.27;101302.44;144992;595;6002;-75
2021/05/29 03:34:42;;;;;;;6.53;3.75;;;;;;;22.76;49.30;101301.56;144992;622;6002;-75
2021/05/29 03:37:08;;;;;;;5.07;4.15;;;;;;;22.79;49.45;101300.66;144992;623;6002;-76
2021/05/29 03:39:36;;;;;;;9.13;3.87;;;;;;;22.81;49.16;101307.72;144992;564;6002;-75
2021/05/29 03:42:04;;;;;;;8.13;4.22;;;;;;;22.83;49.41;101307.69;144992;583;6002;-76
2021/05/29 03:44:32;;;;;;;9.32;3.50;;;;;;;22.77;49.52;101307.75;144992;564;6002;-76
2021/05/29 03:46:58;;;;;;;6.82;3.62;;;;;;;22.75;49.55;101314.84;144992;653;6002;-75
2021/05/29 03:49:25;;;;;;;8.20;3.62;;;;;;;22.76;49.19;101306.00;144992;603;6002;-76
2021/05/29 03:51:52;;;;;;;5.68;3.40;;;;;;;22.51;46.20;101295.69;144992;575;6002;-76
2021/05/29 03:54:18;;;;;;;5.18;3.22;;;;;;;22.49;49.12;101309.81;144992;570;6002;-77
2021/05/29 03:56:45;;;;;;;5.70;2.95;;;;;;;22.51;49.17;101300.09;144992;581;6002;-75
2021/05/29 03:59:15;;;;;;;4.07;2.85;;;;;;;22.37;43.48;101295.84;144992;577;6002;-76
2021/05/29 04:01:42;;;;;;;4.50;2.65;;;;;;;22.22;40.67;101298.59;144992;570;6002;-76
2021/05/29 04:04:10;;;;;;;5.70;2.17;;;;;;;22.18;41.43;101302.16;144992;630;6002;-76
2021/05/29 04:06:37;;;;;;;3.40;2.22;;;;;;;22.19;41.63;101303.91;144992;593;6002;-75
2021/05/29 04:09:07;;;;;;;6.32;2.80;;;;;;;22.23;43.03;101317.09;144992;580;6002;-78
2021/05/29 04:11:34;;;;;;;4.05;2.05;;;;;;;22.30;46.26;101320.56;144992;565;6002;-76
2021/05/29 04:14:01;;;;;;;2.75;2.00;;;;;;;22.39;43.69;101323.12;144992;593;6002;-76
2021/05/29 04:16:27;;;;;;;3.00;2.28;;;;;;;22.27;40.72;101316.16;144992;588;6002;-76
2021/05/29 04:18:54;;;;;;;3.22;2.47;;;;;;;22.25;39.12;101319.72;144992;609;6002;-76
2021/05/29 04:21:20;;;;;;;3.45;2.45;;;;;;;22.13;39.89;101314.53;144992;573;6002;-76
2021/05/29 04:23:47;;;;;;;4.12;2.50;;;;;;;22.21;41.95;101329.44;144992;575;6002;-77
2021/05/29 04:26:13;;;;;;;4.85;2.28;;;;;;;22.09;41.76;101313.69;144992;572;6002;-76
2021/05/29 04:28:40;;;;;;;6.00;2.20;;;;;;;22.17;44.80;101321.56;144992;588;6002;-76
2021/05/29 04:31:07;;;;;;;4.53;1.95;;;;;;;22.34;44.46;101318.78;144992;566;6002;-77
2021/05/29 04:33:33;;;;;;;3.33;2.33;;;;;;;22.28;40.61;101315.25;144992;593;6002;-77
2021/05/29 04:36:00;;;;;;;4.45;2.20;;;;;;;22.35;43.89;101325.81;144992;603;6002;-76
2021/05/29 04:38:27;;;;;;;4.22;2.17;;;;;;;22.41;39.37;101316.09;144992;609;6002;-75
2021/05/29 04:40:54;;;;;;;5.95;2.70;;;;;;;22.48;40.12;101330.12;144992;663;6002;-76
2021/05/29 04:43:22;;;;;;;2.78;2.20;;;;;;;22.61;43.93;101322.94;144992;652;6002;-76
2021/05/29 04:45:48;;;;;;;4.60;2.20;;;;;;;22.64;40.76;101325.53;144992;636;6002;-76
2021/05/29 04:48:15;;;;;;;3.87;1.98;;;;;;;22.79;43.46;101330.66;144992;569;6002;-75
2021/05/29 04:51:19;;;;;;;4.68;2.28;;;;;;;22.81;39.78;101331.53;144992;618;6002;-75
2021/05/29 04:53:53;;;;;;;4.50;2.05;;;;;;;23.01;43.19;101338.34;144992;645;6002;-75
2021/05/29 04:56:21;;;;;;;3.95;2.25;;;;;;;23.16;42.99;101332.00;144992;597;6002;-75
2021/05/29 04:58:47;;;;;;;2.60;1.85;;;;;;;23.27;42.83;101330.09;144992;649;6002;-75
2021/05/29 05:01:14;;;;;;;5.00;2.00;;;;;;;23.40;42.78;101328.19;144992;620;6002;-76
2021/05/29 05:03:40;;;;;;;11.70;2.30;;;;;;;23.52;41.59;101327.12;144991;608;6002;-75
2021/05/29 05:06:11;;;;;;;2.30;2.10;;;;;;;23.64;42.02;101323.41;144992;565;6002;-76
2021/05/29 05:08:37;;;;;;;4.07;2.60;;;;;;;23.70;41.87;101329.50;144992;638;6002;-75
2021/05/29 05:11:04;;;;;;;4.25;2.20;;;;;;;23.81;41.96;101325.81;144992;611;6002;-75
2021/05/29 05:13:30;;;;;;;4.57;3.20;;;;;;;23.92;42.04;101323.88;144992;582;6002;-76
2021/05/29 05:15:57;;;;;;;5.97;2.28;;;;;;;23.95;41.69;101331.78;144992;590;6011;-75
2021/05/29 05:18:24;;;;;;;7.47;2.35;;;;;;;23.95;39.38;101318.53;144992;565;6002;-76
2021/05/29 05:20:51;;;;;;;4.40;2.50;;;;;;;23.92;41.92;101328.31;144992;621;6002;-76
2021/05/29 05:23:22;;;;;;;4.53;3.47;;;;;;;23.83;41.75;101318.69;144992;651;6002;-75
2021/05/29 05:25:53;;;;;;;6.68;3.90;;;;;;;23.82;41.90;101316.97;144992;624;6002;-75
2021/05/29 05:28:29;;;;;;;7.95;3.70;;;;;;;23.73;42.65;101328.56;144992;597;6002;-75
2021/05/29 05:30:57;;;;;;;8.07;4.35;;;;;;;23.72;42.82;101329.50;144991;651;6002;-75
2021/05/29 05:33:25;;;;;;;8.30;5.50;;;;;;;23.70;43.50;101328.63;144992;572;6002;-76
2021/05/29 05:35:56;;;;;;;9.77;3.90;;;;;;;23.76;43.64;101327.66;144992;617;6002;-76
2021/05/29 05:38:22;;;;;;;5.40;4.22;;;;;;;23.80;43.43;101324.94;144992;579;6002;-76
2021/05/29 05:40:49;;;;;;;5.90;3.20;;;;;;;23.82;42.95;101335.53;144992;589;6002;-76
2021/05/29 05:43:15;;;;;;;6.62;2.72;;;;;;;23.83;42.61;101335.53;144992;590;6002;-76
2021/05/29 05:45:42;;;;;;;2.50;2.17;;;;;;;23.83;42.52;101345.19;144992;564;6002;-76
2021/05/29 05:48:08;;;;;;;4.87;2.28;;;;;;;23.77;36.72;101327.63;144992;586;6002;-76
2021/05/29 05:50:50;;;;;;;2.58;1.98;;;;;;;23.78;36.68;101339.09;144992;571;6002;-78
2021/05/29 05:53:17;;;;;;;6.75;2.05;;;;;;;23.68;36.36;101341.03;144992;576;6002;-76
2021/05/29 05:55:44;;;;;;;2.80;2.08;;;;;;;23.79;41.58;101354.12;144992;569;6002;-77
2021/05/29 05:58:10;;;;;;;4.18;1.70;;;;;;;23.81;37.69;101339.06;144992;593;6002;-77
2021/05/29 06:00:36;;;;;;;3.37;1.80;;;;;;;23.78;35.75;101342.63;144991;594;6002;-75
2021/05/29 06:03:03;;;;;;;5.43;2.10;;;;;;;23.76;36.87;101341.78;144992;571;6002;-76
2021/05/29 06:05:30;;;;;;;8.05;2.10;;;;;;;23.63;35.57;101338.44;144992;635;6002;-76
2021/05/29 06:07:57;;;;;;;3.37;2.10;;;;;;;23.71;35.76;101341.84;144993;597;6002;-77
2021/05/29 06:10:24;;;;;;;5.53;2.00;;;;;;;23.85;35.47;101339.03;144993;619;6002;-77
2021/05/29 06:12:52;;;;;;;5.32;2.20;;;;;;;23.99;39.52;101340.56;144993;626;6002;-77
2021/05/29 06:18:11;;;;;;;8.27;5.03;;;;;;;24.13;37.43;101337.69;144993;603;6000;-76
2021/05/29 06:20:42;;;;;;;7.05;2.70;;;;;;;24.17;36.14;101336.75;144993;585;6002;-77
2021/05/29 06:23:09;;;;;;;7.15;2.60;;;;;;;24.24;38.82;101338.37;144993;580;6002;-77
2021/05/29 06:25:36;;;;;;;3.53;2.22;;;;;;;24.32;38.29;101339.13;144993;571;6002;-76
2021/05/29 06:28:03;;;;;;;14.50;10.55;;;;;;;24.41;36.58;101340.75;144993;651;6002;-76
2021/05/29 06:30:29;;;;;;;4.37;3.80;;;;;;;24.44;34.80;101327.44;144993;619;6002;-77
2021/05/29 06:32:56;;;;;;;7.10;5.05;;;;;;;24.54;35.88;101329.00;144993;635;6002;-76
2021/05/29 06:35:22;;;;;;;5.12;4.45;;;;;;;24.64;35.48;101332.37;144993;585;6002;-76
2021/05/29 06:37:51;;;;;;;6.70;4.93;;;;;;;24.58;34.16;101330.75;144992;581;6002;-76
2021/05/29 06:40:18;;;;;;;5.53;3.08;;;;;;;24.57;33.84;101326.31;144992;575;6002;-77
2021/05/29 06:42:44;;;;;;;6.37;3.78;;;;;;;24.73;36.04;101329.56;144992;578;6002;-75
2021/05/29 06:45:12;;;;;;;3.12;1.60;;;;;;;24.73;33.83;101329.56;144992;575;6002;-76
2021/05/29 06:47:39;;;;;;;5.95;3.65;;;;;;;24.86;36.56;101338.16;144992;622;6002;-77
2021/05/29 06:50:09;;;;;;;4.87;3.40;;;;;;;24.56;37.73;101342.25;144992;664;6002;-76
2021/05/29 06:52:39;;;;;;;4.97;3.20;;;;;;;24.49;40.48;101332.66;144993;564;6002;-74
2021/05/29 06:58:40;;;;;;;4.85;3.20;;;;;;;24.59;35.62;101336.91;144993;566;6002;-76
2021/05/29 07:00:41;;;;;;;3.50;2.60;;;;;;;24.51;35.05;101331.72;144993;630;6000;-77
2021/05/29 07:03:08;;;;;;;6.18;3.83;;;;;;;24.51;34.67;101328.19;144993;576;6002;-79
2021/05/29 07:05:34;;;;;;;11.07;7.87;;;;;;;24.47;33.80;101329.13;144992;628;6002;-78
2021/05/29 07:08:01;;;;;;;14.32;9.43;;;;;;;24.70;37.13;101331.41;144993;598;6002;-73
2021/05/29 07:10:27;;;;;;;5.12;3.90;;;;;;;24.79;36.03;101337.41;144993;614;6002;-72
2021/05/29 07:12:54;;;;;;;5.47;3.58;;;;;;;24.79;33.15;101331.22;144993;585;6002;-75
2021/05/29 07:15:21;;;;;;;8.45;5.37;;;;;;;24.89;33.58;101327.47;144993;638;6002;-75
2021/05/29 07:17:53;;;;;;;4.72;3.30;;;;;;;25.11;37.00;101330.56;144993;569;6002;-78
2021/05/29 07:20:20;;;;;;;3.10;2.67;;;;;;;25.07;32.88;101334.22;144993;661;6002;-75
2021/05/29 07:22:46;;;;;;;5.43;2.42;;;;;;;25.02;37.75;101340.50;144993;614;6002;-80
2021/05/29 07:25:13;;;;;;;2.95;2.20;;;;;;;24.78;42.05;101345.41;144993;591;6002;-75
2021/05/29 07:27:40;;;;;;;5.65;2.70;;;;;;;24.79;40.37;101339.19;144993;572;6002;-78
2021/05/29 07:30:07;;;;;;;4.45;2.55;;;;;;;24.86;41.81;101338.16;144992;641;6002;-79
2021/05/29 07:32:36;;;;;;;5.12;2.70;;;;;;;24.99;40.07;101344.09;144993;605;6002;-77
2021/05/29 07:35:04;;;;;;;3.55;2.42;;;;;;;24.79;42.25;101339.19;144993;587;6002;-75
2021/05/29 07:37:30;;;;;;;3.15;1.90;;;;;;;24.60;40.89;101334.22;144993;615;6002;-76
2021/05/29 07:39:57;;;;;;;6.82;2.30;;;;;;;24.67;41.11;101334.97;144992;594;6002;-75
2021/05/29 07:42:24;;;;;;;6.28;2.30;;;;;;;24.71;41.04;101330.50;144993;595;6002;-75
2021/05/29 07:44:50;;;;;;;5.18;2.60;;;;;;;24.81;40.35;101327.63;144994;600;5002;-75
2021/05/29 07:47:19;;;;;;;4.15;2.50;;;;;;;24.94;40.56;101332.69;144994;572;5002;-76
2021/05/29 07:49:45;;;;;;;2.40;2.12;;;;;;;25.02;40.28;101341.38;144994;586;5002;-75
2021/05/29 07:52:12;;;;;;;2.85;2.55;;;;;;;24.81;42.78;101334.72;144994;594;5002;-76
2021/05/29 07:54:39;;;;;;;3.70;2.40;;;;;;;24.88;41.59;101324.84;144994;590;5002;-84
2021/05/29 07:57:10;;;;;;;7.07;2.72;;;;;;;24.95;41.47;101326.50;144994;656;5002;-77
2021/05/29 07:59:38;;;;;;;2.42;2.00;;;;;;;24.84;40.86;101331.16;144994;566;5002;-75
2021/05/29 08:02:06;;;;;;;6.62;2.30;;;;;;;24.86;40.32;101329.31;144994;594;5002;-77
2021/05/29 08:04:33;;;;;;;4.90;2.60;;;;;;;24.76;41.10;101328.63;144994;606;5002;-76
2021/05/29 08:06:59;;;;;;;3.25;2.50;;;;;;;24.63;41.01;101328.87;144994;623;5002;-76
2021/05/29 08:09:26;;;;;;;7.07;2.62;;;;;;;24.62;41.71;101327.12;144994;599;5002;-76
2021/05/29 08:11:53;;;;;;;2.25;1.83;;;;;;;24.63;41.54;101335.97;144994;583;5002;-75
2021/05/29 08:14:20;;;;;;;4.40;2.42;;;;;;;24.44;43.11;101327.44;144994;573;5003;-75
2021/05/29 08:16:47;;;;;;;4.97;2.50;;;;;;;24.60;42.73;101314.78;144994;600;5002;-76
2021/05/29 08:19:14;;;;;;;2.72;2.50;;;;;;;24.27;44.69;101315.34;144994;610;5002;-76
2021/05/29 08:21:45;;;;;;;3.70;2.35;;;;;;;24.28;43.54;101326.84;144994;564;5002;-75
2021/05/29 08:24:17;;;;;;;3.30;2.30;;;;;;;24.35;43.02;101316.97;144994;627;5002;-77
2021/05/29 08:26:44;;;;;;;5.22;2.53;;;;;;;24.63;43.77;101328.87;144994;586;5002;-75
2021/05/29 08:29:13;;;;;;;6.20;2.47;;;;;;;24.44;44.04;101317.69;144994;592;5002;-76
2021/05/29 08:31:42;;;;;;;3.37;2.33;;;;;;;24.18;41.92;101320.81;144994;634;5002;-76
2021/05/29 08:34:09;;;;;;;5.85;2.62;;;;;;;24.23;43.93;101334.00;144994;602;5002;-74
2021/05/29 08:36:40;;;;;;;4.90;2.40;;;;;;;24.33;43.98;101318.78;144994;601;5002;-76
2021/05/29 08:39:08;;;;;;;4.95;2.37;;;;;;;24.49;43.21;101314.09;144994;566;5002;-76
2021/05/29 08:41:36;;;;;;;3.90;2.33;;;;;;;24.26;43.49;101316.25;144994;601;5002;-76
2021/05/29 08:44:04;;;;;;;3.65;2.55;;;;;;;24.22;43.53;101325.16;144993;575;5002;-76
2021/05/29 08:46:31;;;;;;;3.22;2.17;;;;;;;23.99;43.46;101316.72;144994;602;5002;-75
2021/05/29 08:48:59;;;;;;;4.37;2.58;;;;;;;24.12;43.32;101318.28;144994;602;5002;-76
2021/05/29 08:51:26;;;;;;;4.65;2.22;;;;;;;23.97;41.74;101307.91;144993;666;5002;-76
2021/05/29 08:53:57;;;;;;;3.30;2.35;;;;;;;23.94;42.55;101310.59;144994;588;5002;-75
2021/05/29 08:56:25;;;;;;;5.35;2.30;;;;;;;23.92;42.69;101305.34;144994;578;5002;-75
2021/05/29 08:58:54;;;;;;;3.12;2.55;;;;;;;23.93;44.72;101311.53;144994;564;5002;-78
2021/05/29 09:01:22;;;;;;;4.93;2.80;;;;;;;23.93;45.11;101319.47;144994;630;5002;-75
2021/05/29 09:04:00;;;;;;;4.07;2.58;;;;;;;23.85;45.19;101314.31;144994;597;5002;-75
2021/05/29 09:06:47;;;;;;;6.68;5.72;;;;;;;23.92;45.01;101307.97;144994;599;5002;-77
2021/05/29 09:09:15;;;;;;;3.25;2.85;;;;;;;23.96;44.17;101307.03;144994;632;5004;-76
2021/05/29 09:12:10;;;;;;;4.60;3.47;;;;;;;24.20;43.38;101297.78;144994;661;5004;-75
2021/05/29 09:14:39;;;;;;;6.55;4.80;;;;;;;24.21;41.89;101303.94;144994;644;5002;-76
2021/05/29 09:17:19;;;;;;;4.32;2.53;;;;;;;24.38;39.95;101301.87;144994;581;5002;-76
2021/05/29 09:20:12;;;;;;;5.25;2.70;;;;;;;24.33;40.01;101294.91;144994;656;5002;-78
2021/05/29 09:23:00;;;;;;;3.85;2.33;;;;;;;24.37;40.19;101296.59;144994;656;5002;-77
2021/05/29 09:25:28;;;;;;;5.87;3.22;;;;;;;24.34;41.61;101289.59;144994;625;5004;-76
2021/05/29 09:28:05;;;;;;;3.87;2.70;;;;;;;24.44;41.79;101295.59;144994;630;5004;-77
2021/05/29 09:30:53;;;;;;;4.93;2.65;;;;;;;24.40;41.76;101293.88;144994;645;5004;-76
2021/05/29 09:33:37;;;;;;;5.82;3.10;;;;;;;24.49;41.90;101279.59;144994;583;5004;-76
2021/05/29 09:36:09;;;;;;;6.62;4.03;;;;;;;24.52;41.42;101280.41;144994;641;5002;-75
2021/05/29 09:38:46;;;;;;;5.12;2.62;;;;;;;24.70;41.19;101280.97;144994;609;5002;-76
2021/05/29 09:41:42;;;;;;;4.85;2.37;;;;;;;24.56;40.91;101282.13;144994;608;5002;-77
2021/05/29 09:44:12;;;;;;;3.05;2.25;;;;;;;24.42;41.83;101276.19;144994;585;5002;-77
2021/05/29 09:46:56;;;;;;;5.00;2.55;;;;;;;24.35;42.18;101269.22;144994;569;5002;-76
2021/05/29 09:49:47;;;;;;;4.70;2.53;;;;;;;24.52;41.94;101272.44;144994;581;5002;-76
2021/05/29 09:52:40;;;;;;;6.15;2.80;;;;;;;24.55;42.19;101271.50;144994;616;5004;-77
2021/05/29 09:55:13;;;;;;;2.58;2.30;;;;;;;24.66;42.08;101264.25;144994;660;5002;-76
2021/05/29 09:57:59;;;;;;;3.65;2.28;;;;;;;24.56;42.14;101265.28;144994;586;5002;-75
2021/05/29 10:00:52;;;;;;;3.80;2.60;;;;;;;24.52;42.30;101269.78;144994;572;5002;-78
2021/05/29 10:03:18;;;;;;;4.65;2.25;;;;;;;24.58;41.06;101261.72;144994;569;5004;-78
2021/05/29 10:05:48;;;;;;;5.72;2.12;;;;;;;24.47;40.02;101246.87;144994;643;5005;-76
2021/05/29 10:08:17;;;;;;;2.75;2.25;;;;;;;24.44;40.85;101263.75;144994;593;5004;-77
2021/05/29 10:10:44;;;;;;;5.50;2.53;;;;;;;24.73;39.64;101262.31;144994;589;5004;-77
2021/05/29 10:13:10;;;;;;;3.22;2.17;;;;;;;24.74;39.36;101250.81;144994;651;5005;-76
2021/05/29 10:15:36;;;;;;;4.00;2.60;;;;;;;24.67;43.35;101265.09;144994;634;5004;-77
2021/05/29 10:18:28;;;;;;;3.00;2.00;;;;;;;24.72;41.62;101248.19;144994;639;5004;-77
2021/05/29 10:21:16;;;;;;;4.37;2.60;;;;;;;24.67;41.43;101247.37;144994;633;5004;-77
2021/05/29 10:23:47;;;;;;;6.68;2.95;;;;;;;24.87;40.20;101251.44;144994;582;5004;-77
2021/05/29 10:26:17;;;;;;;4.65;2.95;;;;;;;25.00;40.39;101244.94;144994;607;5004;-76
2021/05/29 10:28:47;;;;;;;9.27;4.65;;;;;;;24.84;40.61;101241.72;144994;576;5004;-75
2021/05/29 10:31:14;;;;;;;4.03;2.35;;;;;;;24.92;40.66;101234.47;144994;610;5004;-75
2021/05/29 10:33:43;;;;;;;3.85;2.30;;;;;;;24.81;40.37;101239.12;144994;625;5004;-76
2021/05/29 10:36:29;;;;;;;3.45;2.40;;;;;;;24.92;40.49;101245.09;144994;588;5011;-75
2021/05/29 10:38:56;;;;;;;3.92;2.20;;;;;;;24.95;39.01;101234.41;144994;600;5002;-75
2021/05/29 10:41:55;;;;;;;4.72;2.40;;;;;;;25.07;39.44;101241.25;144994;569;5002;-77
2021/05/29 10:44:42;;;;;;;4.12;1.90;;;;;;;24.99;39.19;101235.19;144994;623;5004;-75
2021/05/29 10:47:19;;;;;;;2.53;2.08;;;;;;;25.06;38.71;101230.66;144994;603;5004;-78
2021/05/29 10:49:55;;;;;;;2.42;2.22;;;;;;;24.89;39.17;101225.72;144994;607;5004;-79
2021/05/29 10:52:51;;;;;;;2.95;2.33;;;;;;;24.85;39.20;101219.59;144994;602;5004;-77
2021/05/29 10:55:27;;;;;;;3.03;2.03;;;;;;;24.84;39.31;101222.28;144994;575;5002;-76
2021/05/29 10:58:06;;;;;;;2.60;2.20;;;;;;;24.73;40.98;101225.16;144994;611;5004;-77
2021/05/29 11:00:58;;;;;;;4.22;2.10;;;;;;;24.83;40.61;101215.22;144994;587;5004;-78
2021/05/29 11:03:26;;;;;;;4.32;2.83;;;;;;;24.71;40.14;101213.72;144994;660;5002;-77
2021/05/29 11:06:01;;;;;;;3.40;2.22;;;;;;;24.74;39.90;101225.12;144994;633;5002;-76
2021/05/29 11:08:47;;;;;;;4.78;2.92;;;;;;;24.98;41.13;101221.06;144993;625;5002;-76
2021/05/29 11:11:55;;;;;;;3.90;2.00;;;;;;;25.01;39.86;101211.28;144994;569;5002;-75
2021/05/29 11:14:52;;;;;;;4.18;1.80;;;;;;;25.08;39.32;101202.25;144994;576;5004;-78
2021/05/29 11:17:30;;;;;;;3.05;1.95;;;;;;;24.86;40.55;101209.84;144994;573;5002;-77
2021/05/29 11:20:20;;;;;;;3.00;2.00;;;;;;;24.93;40.94;101216.78;144994;584;5003;-77
2021/05/29 11:22:49;;;;;;;3.12;2.10;;;;;;;24.94;40.68;101208.78;144994;564;5002;-76
2021/05/29 11:25:21;;;;;;;4.53;2.40;;;;;;;25.01;40.21;101198.00;144994;597;5002;-76
2021/05/29 11:27:49;;;;;;;4.07;2.05;;;;;;;25.08;38.31;101194.31;144994;614;5002;-77
2021/05/29 11:30:32;;;;;;;4.22;2.45;;;;;;;25.12;38.40;101198.66;144994;582;5002;-75
2021/05/29 11:35:50;;;;;;;4.28;2.20;;;;;;;24.72;39.90;101197.75;144994;604;5004;-77
2021/05/29 11:38:36;;;;;;;3.37;2.40;;;;;;;24.84;39.76;101193.94;144994;581;5004;-76
2021/05/29 11:41:18;;;;;;;3.75;3.40;;;;;;;24.87;40.47;101193.88;144994;593;5004;-76
2021/05/29 11:43:54;;;;;;;2.75;2.10;;;;;;;24.80;41.02;101193.16;144994;665;5004;-76
2021/05/29 11:46:26;;;;;;;3.40;3.08;;;;;;;24.88;41.38;101185.00;144994;561;5004;-76
2021/05/29 11:49:06;;;;;;;3.12;2.40;;;;;;;24.79;40.55;101186.06;144994;609;5004;-77
2021/05/29 11:51:38;;;;;;;2.33;2.00;;;;;;;24.91;40.07;101176.97;144994;582;5004;-76
2021/05/29 11:54:17;;;;;;;2.42;2.05;;;;;;;24.99;40.31;101180.31;144994;580;5004;-76
2021/05/29 11:56:49;;;;;;;3.42;2.42;;;;;;;25.10;40.47;101179.19;144994;634;5004;-76
2021/05/29 11:59:18;;;;;;;4.05;2.47;;;;;;;25.17;41.00;101168.38;144994;581;5004;-77